sensor_id;sensor_type;location;lat;lon;timestamp;pressure;altitude;pressure_sealevel;temperature;humidity
64053;BME280;50299;49.524;8.536;2023-04-01T00:01:12;98994.81;;;6.25;68.17
64053;BME280;50299;49.524;8.536;2023-04-01T00:03:42;98987.97;;;6.10;68.70
64053;BME280;50299;49.524;8.536;2023-04-01T00:06:13;98997.25;;;5.76;70.01
64053;BME280;50299;49.524;8.536;2023-04-01T00:08:39;99001.75;;;6.22;68.47
64053;BME280;50299;49.524;8.536;2023-04-01T00:11:06;98982.69;;;6.05;69.71
64053;BME280;50299;49.524;8.536;2023-04-01T00:13:32;98986.84;;;6.11;68.67
64053;BME280;50299;49.524;8.536;2023-04-01T00:15:59;98983.44;;;6.14;68.22
64053;BME280;50299;49.524;8.536;2023-04-01T00:18:29;98981.72;;;6.30;68.27
64053;BME280;50299;49.524;8.536;2023-04-01T00:20:59;98982.56;;;6.22;68.88
64053;BME280;50299;49.524;8.536;2023-04-01T00:23:26;98984.38;;;6.39;69.37
64053;BME280;50299;49.524;8.536;2023-04-01T00:25:52;98976.59;;;6.62;67.83
64053;BME280;50299;49.524;8.536;2023-04-01T00:28:19;98979.47;;;6.45;67.37
64053;BME280;50299;49.524;8.536;2023-04-01T00:30:46;98970.75;;;6.63;67.28
64053;BME280;50299;49.524;8.536;2023-04-01T00:33:13;98978.25;;;6.87;65.88
64053;BME280;50299;49.524;8.536;2023-04-01T00:35:39;98986.41;;;6.63;65.96
64053;BME280;50299;49.524;8.536;2023-04-01T00:38:06;98976.53;;;6.50;66.59
64053;BME280;50299;49.524;8.536;2023-04-01T00:40:44;98974.84;;;6.57;67.58
64053;BME280;50299;49.524;8.536;2023-04-01T00:43:13;98981.88;;;6.67;65.28
64053;BME280;50299;49.524;8.536;2023-04-01T00:45:42;98970.44;;;6.77;66.30
64053;BME280;50299;49.524;8.536;2023-04-01T00:48:19;98985.44;;;6.47;66.39
64053;BME280;50299;49.524;8.536;2023-04-01T00:50:52;98984.22;;;6.56;66.90
64053;BME280;50299;49.524;8.536;2023-04-01T00:53:20;98974.72;;;6.87;66.08
64053;BME280;50299;49.524;8.536;2023-04-01T00:55:51;98979.53;;;6.57;64.52
64053;BME280;50299;49.524;8.536;2023-04-01T00:58:21;98969.56;;;6.98;64.64
64053;BME280;50299;49.524;8.536;2023-04-01T01:00:50;98964.28;;;6.80;63.13
64053;BME280;50299;49.524;8.536;2023-04-01T01:03:17;98970.88;;;6.34;63.59
64053;BME280;50299;49.524;8.536;2023-04-01T01:11:56;98980.94;;;6.63;64.88
64053;BME280;50299;49.524;8.536;2023-04-01T01:14:35;98971.94;;;6.75;62.86
64053;BME280;50299;49.524;8.536;2023-04-01T01:17:28;98965.13;;;6.27;66.62
64053;BME280;50299;49.524;8.536;2023-04-01T01:23:13;98971.94;;;6.42;63.46
64053;BME280;50299;49.524;8.536;2023-04-01T01:37:13;98953.97;;;6.44;64.17
64053;BME280;50299;49.524;8.536;2023-04-01T01:39:43;98952.09;;;6.36;63.02
64053;BME280;50299;49.524;8.536;2023-04-01T01:42:13;98946.78;;;6.52;63.04
64053;BME280;50299;49.524;8.536;2023-04-01T01:44:43;98949.16;;;6.41;63.24
64053;BME280;50299;49.524;8.536;2023-04-01T01:47:10;98946.75;;;6.85;62.51
64053;BME280;50299;49.524;8.536;2023-04-01T01:49:39;98935.84;;;6.31;62.24
64053;BME280;50299;49.524;8.536;2023-04-01T01:52:07;98934.47;;;6.58;62.17
64053;BME280;50299;49.524;8.536;2023-04-01T01:54:33;98941.00;;;6.65;63.04
64053;BME280;50299;49.524;8.536;2023-04-01T01:57:06;98946.88;;;6.43;61.84
64053;BME280;50299;49.524;8.536;2023-04-01T01:59:35;98940.16;;;6.53;61.46
64053;BME280;50299;49.524;8.536;2023-04-01T02:02:04;98941.25;;;6.19;63.25
64053;BME280;50299;49.524;8.536;2023-04-01T02:04:36;98936.00;;;6.13;63.00
64053;BME280;50299;49.524;8.536;2023-04-01T02:07:09;98944.97;;;6.02;63.58
64053;BME280;50299;49.524;8.536;2023-04-01T02:09:38;98943.16;;;6.06;62.70
64053;BME280;50299;49.524;8.536;2023-04-01T02:12:07;98946.81;;;6.10;62.87
64053;BME280;50299;49.524;8.536;2023-04-01T02:15:09;98944.09;;;6.10;64.14
64053;BME280;50299;49.524;8.536;2023-04-01T02:17:39;98942.88;;;6.20;62.97
64053;BME280;50299;49.524;8.536;2023-04-01T02:20:13;98947.00;;;6.80;61.15
64053;BME280;50299;49.524;8.536;2023-04-01T02:22:46;98936.44;;;6.36;62.07
64053;BME280;50299;49.524;8.536;2023-04-01T02:25:18;98947.19;;;6.29;62.52
64053;BME280;50299;49.524;8.536;2023-04-01T02:27:46;98950.59;;;6.26;63.97
64053;BME280;50299;49.524;8.536;2023-04-01T02:30:14;98949.09;;;6.29;62.73
64053;BME280;50299;49.524;8.536;2023-04-01T02:32:42;98941.97;;;6.49;63.58
64053;BME280;50299;49.524;8.536;2023-04-01T02:35:10;98943.63;;;6.62;61.49
64053;BME280;50299;49.524;8.536;2023-04-01T02:37:38;98940.91;;;6.62;61.49
64053;BME280;50299;49.524;8.536;2023-04-01T02:40:11;98948.22;;;6.37;61.56
64053;BME280;50299;49.524;8.536;2023-04-01T02:42:38;98948.69;;;6.18;63.81
64053;BME280;50299;49.524;8.536;2023-04-01T02:45:05;98949.94;;;6.29;62.98
64053;BME280;50299;49.524;8.536;2023-04-01T02:47:32;98925.59;;;6.40;62.88
64053;BME280;50299;49.524;8.536;2023-04-01T02:49:58;98946.28;;;6.16;62.76
64053;BME280;50299;49.524;8.536;2023-04-01T02:52:25;98945.81;;;6.14;63.40
64053;BME280;50299;49.524;8.536;2023-04-01T02:54:52;98939.25;;;6.07;63.77
64053;BME280;50299;49.524;8.536;2023-04-01T02:57:19;98950.81;;;5.91;63.53
64053;BME280;50299;49.524;8.536;2023-04-01T02:59:46;98940.72;;;5.83;64.30
64053;BME280;50299;49.524;8.536;2023-04-01T03:02:13;98939.75;;;6.09;63.83
64053;BME280;50299;49.524;8.536;2023-04-01T03:04:40;98944.03;;;5.98;64.62
64053;BME280;50299;49.524;8.536;2023-04-01T03:07:06;98931.44;;;5.76;65.74
64053;BME280;50299;49.524;8.536;2023-04-01T03:09:33;98942.78;;;5.65;67.13
64053;BME280;50299;49.524;8.536;2023-04-01T03:11:59;98948.84;;;6.01;64.68
64053;BME280;50299;49.524;8.536;2023-04-01T03:14:26;98941.28;;;5.77;66.42
64053;BME280;50299;49.524;8.536;2023-04-01T03:16:52;98941.19;;;6.06;66.49
64053;BME280;50299;49.524;8.536;2023-04-01T03:19:18;98926.75;;;5.97;65.37
64053;BME280;50299;49.524;8.536;2023-04-01T03:21:45;98943.47;;;5.83;66.15
64053;BME280;50299;49.524;8.536;2023-04-01T03:24:11;98937.38;;;5.78;66.96
64053;BME280;50299;49.524;8.536;2023-04-01T03:26:38;98942.25;;;5.51;67.33
64053;BME280;50299;49.524;8.536;2023-04-01T03:29:04;98935.00;;;5.76;66.93
64053;BME280;50299;49.524;8.536;2023-04-01T03:31:31;98938.44;;;5.64;68.46
64053;BME280;50299;49.524;8.536;2023-04-01T03:33:57;98946.34;;;5.87;67.25
64053;BME280;50299;49.524;8.536;2023-04-01T03:36:24;98946.53;;;5.61;67.28
64053;BME280;50299;49.524;8.536;2023-04-01T03:38:50;98938.44;;;5.64;68.50
64053;BME280;50299;49.524;8.536;2023-04-01T03:41:17;98949.22;;;5.70;67.70
64053;BME280;50299;49.524;8.536;2023-04-01T03:43:43;98938.69;;;5.51;68.05
64053;BME280;50299;49.524;8.536;2023-04-01T03:46:10;98942.94;;;5.69;68.82
64053;BME280;50299;49.524;8.536;2023-04-01T03:48:37;98950.44;;;5.81;67.00
64053;BME280;50299;49.524;8.536;2023-04-01T03:51:07;98939.19;;;5.74;68.72
64053;BME280;50299;49.524;8.536;2023-04-01T03:53:33;98948.63;;;5.85;68.01
64053;BME280;50299;49.524;8.536;2023-04-01T03:56:04;98936.94;;;5.97;67.27
64053;BME280;50299;49.524;8.536;2023-04-01T03:58:31;98942.53;;;5.79;67.78
64053;BME280;50299;49.524;8.536;2023-04-01T04:00:57;98934.56;;;5.86;68.37
64053;BME280;50299;49.524;8.536;2023-04-01T04:03:24;98943.38;;;5.71;67.35
64053;BME280;50299;49.524;8.536;2023-04-01T04:05:50;98953.09;;;5.69;67.10
64053;BME280;50299;49.524;8.536;2023-04-01T04:08:17;98937.00;;;6.09;68.37
64053;BME280;50299;49.524;8.536;2023-04-01T04:10:44;98943.34;;;6.01;65.49
64053;BME280;50299;49.524;8.536;2023-04-01T04:13:10;98935.38;;;6.08;66.96
64053;BME280;50299;49.524;8.536;2023-04-01T04:15:38;98944.66;;;6.15;65.10
64053;BME280;50299;49.524;8.536;2023-04-01T04:18:04;98935.19;;;6.34;66.51
64053;BME280;50299;49.524;8.536;2023-04-01T04:20:31;98940.28;;;6.56;63.95
64053;BME280;50299;49.524;8.536;2023-04-01T04:22:57;98940.00;;;5.74;67.16
64053;BME280;50299;49.524;8.536;2023-04-01T04:25:23;98943.28;;;5.88;66.74
64053;BME280;50299;49.524;8.536;2023-04-01T04:27:50;98942.94;;;6.11;66.35
64053;BME280;50299;49.524;8.536;2023-04-01T04:30:16;98940.75;;;6.04;65.21
64053;BME280;50299;49.524;8.536;2023-04-01T04:32:43;98939.84;;;5.91;64.90
64053;BME280;50299;49.524;8.536;2023-04-01T04:35:09;98935.31;;;5.96;65.52
64053;BME280;50299;49.524;8.536;2023-04-01T04:37:36;98931.88;;;6.40;64.40
64053;BME280;50299;49.524;8.536;2023-04-01T04:40:02;98939.13;;;6.24;64.07
64053;BME280;50299;49.524;8.536;2023-04-01T04:42:29;98938.72;;;6.34;65.30
64053;BME280;50299;49.524;8.536;2023-04-01T04:44:55;98935.72;;;6.06;64.04
64053;BME280;50299;49.524;8.536;2023-04-01T04:47:22;98930.63;;;6.17;63.36
64053;BME280;50299;49.524;8.536;2023-04-01T04:49:48;98936.66;;;6.10;64.94
64053;BME280;50299;49.524;8.536;2023-04-01T04:52:15;98942.94;;;6.32;64.90
64053;BME280;50299;49.524;8.536;2023-04-01T04:54:41;98941.66;;;6.50;63.40
64053;BME280;50299;49.524;8.536;2023-04-01T04:57:08;98926.31;;;6.49;64.36
64053;BME280;50299;49.524;8.536;2023-04-01T04:59:34;98937.72;;;5.76;66.73
64053;BME280;50299;49.524;8.536;2023-04-01T05:02:01;98934.19;;;5.76;67.50
64053;BME280;50299;49.524;8.536;2023-04-01T05:04:27;98925.22;;;5.87;67.96
64053;BME280;50299;49.524;8.536;2023-04-01T05:06:54;98930.03;;;5.90;68.07
64053;BME280;50299;49.524;8.536;2023-04-01T05:09:20;98931.25;;;5.81;67.91
64053;BME280;50299;49.524;8.536;2023-04-01T05:11:47;98932.63;;;5.66;68.64
64053;BME280;50299;49.524;8.536;2023-04-01T05:14:15;98945.09;;;5.55;71.13
64053;BME280;50299;49.524;8.536;2023-04-01T05:16:41;98932.19;;;5.85;68.75
64053;BME280;50299;49.524;8.536;2023-04-01T05:19:10;98940.91;;;5.28;71.07
64053;BME280;50299;49.524;8.536;2023-04-01T05:21:36;98943.13;;;5.64;68.98
64053;BME280;50299;49.524;8.536;2023-04-01T05:24:03;98943.16;;;5.85;68.48
64053;BME280;50299;49.524;8.536;2023-04-01T05:26:29;98944.44;;;5.58;69.52
64053;BME280;50299;49.524;8.536;2023-04-01T05:28:56;98935.25;;;5.83;68.92
64053;BME280;50299;49.524;8.536;2023-04-01T05:31:23;98936.22;;;6.21;67.79
64053;BME280;50299;49.524;8.536;2023-04-01T05:33:50;98930.75;;;5.79;68.67
64053;BME280;50299;49.524;8.536;2023-04-01T05:36:16;98928.22;;;6.36;67.84
64053;BME280;50299;49.524;8.536;2023-04-01T05:38:43;98941.19;;;6.06;68.70
64053;BME280;50299;49.524;8.536;2023-04-01T05:41:14;98931.44;;;6.18;69.56
64053;BME280;50299;49.524;8.536;2023-04-01T05:43:41;98926.13;;;5.91;69.63
64053;BME280;50299;49.524;8.536;2023-04-01T05:46:08;98929.41;;;6.48;68.37
64053;BME280;50299;49.524;8.536;2023-04-01T05:48:35;98927.50;;;6.27;68.41
64053;BME280;50299;49.524;8.536;2023-04-01T05:51:02;98925.22;;;6.29;68.03
64053;BME280;50299;49.524;8.536;2023-04-01T05:53:28;98924.44;;;6.41;67.87
64053;BME280;50299;49.524;8.536;2023-04-01T05:55:55;98928.38;;;6.52;68.15
64053;BME280;50299;49.524;8.536;2023-04-01T05:58:21;98914.69;;;6.31;70.45
64053;BME280;50299;49.524;8.536;2023-04-01T06:00:48;98923.00;;;6.02;67.59
64053;BME280;50299;49.524;8.536;2023-04-01T06:03:27;98920.94;;;5.99;68.50
64053;BME280;50299;49.524;8.536;2023-04-01T06:05:54;98924.09;;;6.09;70.08
64053;BME280;50299;49.524;8.536;2023-04-01T06:08:24;98927.97;;;6.62;66.71
64053;BME280;50299;49.524;8.536;2023-04-01T06:11:16;98938.69;;;6.55;67.78
64053;BME280;50299;49.524;8.536;2023-04-01T06:16:35;98929.47;;;6.39;68.53
64053;BME280;50299;49.524;8.536;2023-04-01T06:19:29;98922.59;;;5.91;68.41
64053;BME280;50299;49.524;8.536;2023-04-01T06:25:16;98929.94;;;6.41;67.68
64053;BME280;50299;49.524;8.536;2023-04-01T06:27:57;98930.25;;;5.85;69.77
64053;BME280;50299;49.524;8.536;2023-04-01T06:35:42;98915.44;;;5.78;70.28
64053;BME280;50299;49.524;8.536;2023-04-01T06:46:16;98916.00;;;5.92;69.20
64053;BME280;50299;49.524;8.536;2023-04-01T06:49:24;98919.78;;;6.00;69.08
64053;BME280;50299;49.524;8.536;2023-04-01T06:52:19;98919.72;;;5.87;68.43
64053;BME280;50299;49.524;8.536;2023-04-01T06:54:56;98913.75;;;5.44;70.40
64053;BME280;50299;49.524;8.536;2023-04-01T06:57:42;98922.38;;;5.54;70.16
64053;BME280;50299;49.524;8.536;2023-04-01T07:00:43;98919.41;;;5.89;71.27
64053;BME280;50299;49.524;8.536;2023-04-01T07:03:31;98921.22;;;5.85;69.42
64053;BME280;50299;49.524;8.536;2023-04-01T07:06:05;98916.91;;;5.75;69.31
64053;BME280;50299;49.524;8.536;2023-04-01T07:08:36;98920.00;;;5.74;68.52
64053;BME280;50299;49.524;8.536;2023-04-01T07:11:11;98921.28;;;5.47;71.66
64053;BME280;50299;49.524;8.536;2023-04-01T07:13:54;98931.50;;;6.09;70.37
64053;BME280;50299;49.524;8.536;2023-04-01T07:16:31;98926.75;;;5.55;70.22
64053;BME280;50299;49.524;8.536;2023-04-01T07:19:06;98932.25;;;5.47;70.69
64053;BME280;50299;49.524;8.536;2023-04-01T07:21:40;98932.41;;;5.50;70.57
64053;BME280;50299;49.524;8.536;2023-04-01T07:24:23;98941.41;;;5.59;70.49
64053;BME280;50299;49.524;8.536;2023-04-01T07:26:56;98919.19;;;5.73;71.64
64053;BME280;50299;49.524;8.536;2023-04-01T07:29:25;98919.53;;;5.93;70.92
64053;BME280;50299;49.524;8.536;2023-04-01T07:32:18;98932.50;;;5.83;71.08
64053;BME280;50299;49.524;8.536;2023-04-01T07:34:54;98932.91;;;5.73;69.89
64053;BME280;50299;49.524;8.536;2023-04-01T07:37:34;98935.50;;;5.90;69.95
64053;BME280;50299;49.524;8.536;2023-04-01T07:43:26;98923.22;;;5.97;70.87
64053;BME280;50299;49.524;8.536;2023-04-01T07:49:14;98921.88;;;5.61;71.48
64053;BME280;50299;49.524;8.536;2023-04-01T07:51:50;98935.72;;;6.06;70.21
64053;BME280;50299;49.524;8.536;2023-04-01T07:54:31;98932.50;;;5.83;70.64
64053;BME280;50299;49.524;8.536;2023-04-01T07:57:19;98939.28;;;6.28;69.90
64053;BME280;50299;49.524;8.536;2023-04-01T08:00:00;98936.22;;;6.29;70.41
64053;BME280;50299;49.524;8.536;2023-04-01T08:05:30;98927.97;;;6.29;72.04
64053;BME280;50299;49.524;8.536;2023-04-01T08:08:12;98947.91;;;6.18;70.17
64053;BME280;50299;49.524;8.536;2023-04-01T08:16:26;98944.88;;;6.64;71.18
64053;BME280;50299;49.524;8.536;2023-04-01T08:21:56;98957.94;;;5.93;72.28
64053;BME280;50299;49.524;8.536;2023-04-01T08:24:36;98951.78;;;6.37;70.89
64053;BME280;50299;49.524;8.536;2023-04-01T08:27:21;98953.16;;;6.44;72.89
64053;BME280;50299;49.524;8.536;2023-04-01T08:29:58;98955.16;;;6.55;71.11
64053;BME280;50299;49.524;8.536;2023-04-01T08:32:29;98953.34;;;6.26;72.01
64053;BME280;50299;49.524;8.536;2023-04-01T08:35:09;98960.13;;;6.41;72.37
64053;BME280;50299;49.524;8.536;2023-04-01T08:37:41;98946.53;;;6.45;73.09
64053;BME280;50299;49.524;8.536;2023-04-01T08:43:00;98957.66;;;6.48;73.16
64053;BME280;50299;49.524;8.536;2023-04-01T08:45:45;98955.47;;;6.42;72.67
64053;BME280;50299;49.524;8.536;2023-04-01T08:48:27;98953.16;;;6.44;72.37
64053;BME280;50299;49.524;8.536;2023-04-01T08:53:57;98946.69;;;6.60;74.12
64053;BME280;50299;49.524;8.536;2023-04-01T08:56:33;98949.00;;;6.58;72.57
64053;BME280;50299;49.524;8.536;2023-04-01T09:02:38;98957.13;;;6.13;74.74
64053;BME280;50299;49.524;8.536;2023-04-01T09:19:16;98975.94;;;6.44;73.86
64053;BME280;50299;49.524;8.536;2023-04-01T09:24:34;98966.31;;;6.38;74.75
64053;BME280;50299;49.524;8.536;2023-04-01T09:27:26;98968.19;;;6.25;75.21
64053;BME280;50299;49.524;8.536;2023-04-01T09:30:19;98973.91;;;6.53;75.55
64053;BME280;50299;49.524;8.536;2023-04-01T09:33:01;98973.22;;;6.56;74.54
64053;BME280;50299;49.524;8.536;2023-04-01T09:35:46;98985.53;;;6.38;75.23
64053;BME280;50299;49.524;8.536;2023-04-01T09:38:23;98980.13;;;6.62;74.89
64053;BME280;50299;49.524;8.536;2023-04-01T09:41:22;98983.25;;;6.73;75.78
64053;BME280;50299;49.524;8.536;2023-04-01T09:52:39;98984.34;;;6.60;74.41
64053;BME280;50299;49.524;8.536;2023-04-01T10:09:14;98991.47;;;6.73;75.85
64053;BME280;50299;49.524;8.536;2023-04-01T10:15:11;98991.06;;;6.83;74.16
64053;BME280;50299;49.524;8.536;2023-04-01T10:18:00;98988.16;;;7.37;74.57
64053;BME280;50299;49.524;8.536;2023-04-01T10:20:44;99000.31;;;7.36;73.72
64053;BME280;50299;49.524;8.536;2023-04-01T10:23:23;98997.38;;;7.54;72.64
64053;BME280;50299;49.524;8.536;2023-04-01T10:25:57;98999.84;;;7.34;72.61
64053;BME280;50299;49.524;8.536;2023-04-01T10:31:42;98998.16;;;7.79;73.75
64053;BME280;50299;49.524;8.536;2023-04-01T10:42:32;98993.03;;;8.18;71.08
64053;BME280;50299;49.524;8.536;2023-04-01T10:45:34;99000.09;;;7.91;70.37
64053;BME280;50299;49.524;8.536;2023-04-01T10:48:12;99003.44;;;7.72;71.12
64053;BME280;50299;49.524;8.536;2023-04-01T10:53:49;98994.34;;;7.47;74.15
64053;BME280;50299;49.524;8.536;2023-04-01T10:56:40;99002.84;;;7.78;71.67
64053;BME280;50299;49.524;8.536;2023-04-01T11:08:22;99004.22;;;7.72;72.11
64053;BME280;50299;49.524;8.536;2023-04-01T11:11:25;99004.91;;;7.45;72.36
64053;BME280;50299;49.524;8.536;2023-04-01T11:22:42;99002.88;;;7.66;72.85
64053;BME280;50299;49.524;8.536;2023-04-01T11:25:35;99013.84;;;7.42;69.71
64053;BME280;50299;49.524;8.536;2023-04-01T11:31:39;99004.94;;;7.69;71.65
64053;BME280;50299;49.524;8.536;2023-04-01T11:34:32;99012.03;;;7.82;72.17
64053;BME280;50299;49.524;8.536;2023-04-01T11:37:37;99010.06;;;7.83;71.76
64053;BME280;50299;49.524;8.536;2023-04-01T11:40:10;99011.31;;;7.98;72.28
64053;BME280;50299;49.524;8.536;2023-04-01T11:42:51;99018.88;;;7.88;71.72
64053;BME280;50299;49.524;8.536;2023-04-01T11:45:56;99027.25;;;7.68;69.19
64053;BME280;50299;49.524;8.536;2023-04-01T11:49:07;99016.94;;;7.52;73.09
64053;BME280;50299;49.524;8.536;2023-04-01T11:51:43;99024.25;;;6.90;71.42
64053;BME280;50299;49.524;8.536;2023-04-01T11:54:20;99019.97;;;7.14;71.10
64053;BME280;50299;49.524;8.536;2023-04-01T11:57:13;99035.00;;;7.29;71.13
64053;BME280;50299;49.524;8.536;2023-04-01T12:05:38;99039.69;;;7.16;69.96
64053;BME280;50299;49.524;8.536;2023-04-01T12:08:18;99040.66;;;7.45;68.24
64053;BME280;50299;49.524;8.536;2023-04-01T12:10:59;99042.53;;;7.65;66.31
64053;BME280;50299;49.524;8.536;2023-04-01T12:13:35;99032.50;;;7.36;70.31
64053;BME280;50299;49.524;8.536;2023-04-01T12:16:21;99045.47;;;7.60;65.71
64053;BME280;50299;49.524;8.536;2023-04-01T12:18:59;99045.22;;;7.40;67.25
64053;BME280;50299;49.524;8.536;2023-04-01T12:21:38;99044.06;;;7.29;66.27
64053;BME280;50299;49.524;8.536;2023-04-01T12:27:32;99048.03;;;7.53;68.84
64053;BME280;50299;49.524;8.536;2023-04-01T12:33:15;99042.91;;;7.30;66.93
64053;BME280;50299;49.524;8.536;2023-04-01T12:44:29;99050.06;;;7.68;64.90
64053;BME280;50299;49.524;8.536;2023-04-01T12:47:20;99055.44;;;8.01;64.95
64053;BME280;50299;49.524;8.536;2023-04-01T12:50:16;99052.84;;;8.45;61.94
64053;BME280;50299;49.524;8.536;2023-04-01T12:52:58;99050.88;;;7.93;63.79
64053;BME280;50299;49.524;8.536;2023-04-01T12:58:10;99057.09;;;8.43;63.75
64053;BME280;50299;49.524;8.536;2023-04-01T13:01:01;99065.84;;;8.32;62.18
64053;BME280;50299;49.524;8.536;2023-04-01T13:09:07;99063.69;;;7.52;65.10
64053;BME280;50299;49.524;8.536;2023-04-01T13:11:55;99068.88;;;7.78;64.71
64053;BME280;50299;49.524;8.536;2023-04-01T13:14:35;99073.00;;;7.97;63.91
64053;BME280;50299;49.524;8.536;2023-04-01T13:17:27;99081.47;;;7.79;64.47
64053;BME280;50299;49.524;8.536;2023-04-01T13:20:14;99064.84;;;7.51;65.12
64053;BME280;50299;49.524;8.536;2023-04-01T13:25:39;99078.97;;;7.86;64.53
64053;BME280;50299;49.524;8.536;2023-04-01T13:28:22;99079.88;;;7.78;65.73
64053;BME280;50299;49.524;8.536;2023-04-01T13:31:08;99083.81;;;7.44;66.44
64053;BME280;50299;49.524;8.536;2023-04-01T13:33:50;99087.22;;;7.62;68.31
64053;BME280;50299;49.524;8.536;2023-04-01T13:39:11;99106.25;;;8.04;64.05
64053;BME280;50299;49.524;8.536;2023-04-01T13:44:42;99094.31;;;8.00;66.28
64053;BME280;50299;49.524;8.536;2023-04-01T14:00:48;99106.00;;;7.84;63.48
64053;BME280;50299;49.524;8.536;2023-04-01T14:06:38;99097.75;;;7.72;64.14
64053;BME280;50299;49.524;8.536;2023-04-01T14:09:21;99107.16;;;7.83;63.99
64053;BME280;50299;49.524;8.536;2023-04-01T14:28:49;99125.97;;;7.36;65.56
64053;BME280;50299;49.524;8.536;2023-04-01T14:34:05;99116.78;;;7.65;68.66
64053;BME280;50299;49.524;8.536;2023-04-01T14:39:43;99122.53;;;7.84;63.92
64053;BME280;50299;49.524;8.536;2023-04-01T14:42:23;99133.19;;;7.86;64.67
64053;BME280;50299;49.524;8.536;2023-04-01T14:50:51;99140.19;;;8.08;64.83
64053;BME280;50299;49.524;8.536;2023-04-01T14:55:54;99153.25;;;7.74;63.80
64053;BME280;50299;49.524;8.536;2023-04-01T14:58:24;99146.72;;;7.79;63.85
64053;BME280;50299;49.524;8.536;2023-04-01T15:03:57;99154.50;;;8.01;62.20
64053;BME280;50299;49.524;8.536;2023-04-01T15:14:49;99166.03;;;7.58;63.08
64053;BME280;50299;49.524;8.536;2023-04-01T15:17:58;99169.66;;;7.83;63.36
64053;BME280;50299;49.524;8.536;2023-04-01T15:23:27;99170.88;;;7.61;63.29
64053;BME280;50299;49.524;8.536;2023-04-01T15:37:18;99175.16;;;7.83;62.56
64053;BME280;50299;49.524;8.536;2023-04-01T15:42:55;99182.34;;;7.75;60.29
64053;BME280;50299;49.524;8.536;2023-04-01T15:51:26;99195.47;;;7.91;60.76
64053;BME280;50299;49.524;8.536;2023-04-01T15:54:27;99191.94;;;8.39;59.01
64053;BME280;50299;49.524;8.536;2023-04-01T15:59:55;99192.44;;;7.71;64.54
64053;BME280;50299;49.524;8.536;2023-04-01T16:02:42;99200.81;;;7.75;61.11
64053;BME280;50299;49.524;8.536;2023-04-01T16:05:55;99200.00;;;7.74;60.40
64053;BME280;50299;49.524;8.536;2023-04-01T16:11:36;99202.97;;;7.69;59.69
64053;BME280;50299;49.524;8.536;2023-04-01T16:17:00;99212.88;;;7.82;59.19
64053;BME280;50299;49.524;8.536;2023-04-01T16:19:50;99204.81;;;7.65;63.74
64053;BME280;50299;49.524;8.536;2023-04-01T16:22:31;99214.13;;;7.97;59.79
64053;BME280;50299;49.524;8.536;2023-04-01T16:25:18;99225.75;;;8.15;59.92
64053;BME280;50299;49.524;8.536;2023-04-01T16:27:53;99220.22;;;7.91;61.32
64053;BME280;50299;49.524;8.536;2023-04-01T16:30:40;99221.53;;;7.72;62.41
64053;BME280;50299;49.524;8.536;2023-04-01T16:33:20;99214.22;;;7.76;62.30
64053;BME280;50299;49.524;8.536;2023-04-01T16:35:58;99227.91;;;7.97;61.38
64053;BME280;50299;49.524;8.536;2023-04-01T16:41:14;99237.69;;;8.19;59.85
64053;BME280;50299;49.524;8.536;2023-04-01T16:43:50;99225.69;;;7.78;59.80
64053;BME280;50299;49.524;8.536;2023-04-01T16:46:39;99242.34;;;7.49;60.62
64053;BME280;50299;49.524;8.536;2023-04-01T16:49:17;99235.81;;;7.32;61.35
64053;BME280;50299;49.524;8.536;2023-04-01T16:51:54;99238.75;;;7.69;60.28
64053;BME280;50299;49.524;8.536;2023-04-01T16:54:44;99235.38;;;7.63;60.79
64053;BME280;50299;49.524;8.536;2023-04-01T16:57:23;99246.13;;;7.89;58.93
64053;BME280;50299;49.524;8.536;2023-04-01T17:00:26;99248.91;;;8.02;58.66
64053;BME280;50299;49.524;8.536;2023-04-01T17:03:13;99249.22;;;7.55;59.77
64053;BME280;50299;49.524;8.536;2023-04-01T17:06:05;99263.44;;;7.57;59.02
64053;BME280;50299;49.524;8.536;2023-04-01T17:11:40;99266.66;;;7.59;58.81
64053;BME280;50299;49.524;8.536;2023-04-01T17:14:20;99266.66;;;7.38;58.68
64053;BME280;50299;49.524;8.536;2023-04-01T17:19:32;99264.91;;;7.54;59.37
64053;BME280;50299;49.524;8.536;2023-04-01T17:36:38;99280.63;;;7.54;58.74
64053;BME280;50299;49.524;8.536;2023-04-01T17:42:20;99294.78;;;7.77;58.77
64053;BME280;50299;49.524;8.536;2023-04-01T17:48:12;99298.22;;;8.07;57.69
64053;BME280;50299;49.524;8.536;2023-04-01T17:51:51;99305.25;;;7.83;57.55
64053;BME280;50299;49.524;8.536;2023-04-01T17:54:03;99309.28;;;7.44;59.13
64053;BME280;50299;49.524;8.536;2023-04-01T18:10:25;99328.38;;;7.49;59.32
64053;BME280;50299;49.524;8.536;2023-04-01T18:13:27;99333.91;;;7.82;58.16
64053;BME280;50299;49.524;8.536;2023-04-01T18:16:10;99335.75;;;7.57;58.23
64053;BME280;50299;49.524;8.536;2023-04-01T18:18:55;99339.38;;;7.70;58.07
64053;BME280;50299;49.524;8.536;2023-04-01T18:21:40;99338.03;;;7.55;57.79
64053;BME280;50299;49.524;8.536;2023-04-01T18:24:18;99353.06;;;7.58;60.04
64053;BME280;50299;49.524;8.536;2023-04-01T18:27:00;99359.19;;;7.34;61.11
64053;BME280;50299;49.524;8.536;2023-04-01T18:29:55;99358.63;;;7.20;63.15
64053;BME280;50299;49.524;8.536;2023-04-01T18:32:34;99363.78;;;6.92;63.10
64053;BME280;50299;49.524;8.536;2023-04-01T18:35:27;99373.53;;;6.80;64.60
64053;BME280;50299;49.524;8.536;2023-04-01T18:38:15;99377.22;;;6.84;64.34
64053;BME280;50299;49.524;8.536;2023-04-01T18:40:53;99379.78;;;6.89;64.88
64053;BME280;50299;49.524;8.536;2023-04-01T18:43:37;99376.09;;;6.85;66.95
64053;BME280;50299;49.524;8.536;2023-04-01T18:46:24;99383.09;;;7.12;66.51
64053;BME280;50299;49.524;8.536;2023-04-01T18:51:41;99394.69;;;7.18;62.69
64053;BME280;50299;49.524;8.536;2023-04-01T18:56:43;99397.47;;;6.80;64.09
64053;BME280;50299;49.524;8.536;2023-04-01T18:59:16;99401.91;;;6.93;64.15
64053;BME280;50299;49.524;8.536;2023-04-01T19:04:37;99407.22;;;7.36;65.64
64053;BME280;50299;49.524;8.536;2023-04-01T19:10:54;99408.53;;;7.30;63.02
64053;BME280;50299;49.524;8.536;2023-04-01T19:13:45;99417.19;;;7.50;61.76
64053;BME280;50299;49.524;8.536;2023-04-01T19:19:18;99415.81;;;7.26;63.83
64053;BME280;50299;49.524;8.536;2023-04-01T19:21:56;99425.31;;;7.08;63.12
64053;BME280;50299;49.524;8.536;2023-04-01T19:27:29;99425.03;;;6.92;63.44
64053;BME280;50299;49.524;8.536;2023-04-01T19:32:42;99429.28;;;7.19;64.88